Cleora, Colorado
Current Conditions -  °F | °C
As of 8:35 PM on Monday 20 Oct 2014 (Local Time) from KANK Reporting Station
Clear Clear  
Wind Chill: 53°   Ceiling: Unl
Heat Index: 53°   Visibility: 10mi
Dew Point: 36°   Wind: 3mph
Humidity: 51%   Direction: 230°SW
Pressure: 30.3"   Gusts: NA
Location:  38.5561°N, 106.066°W
Report Text: KANK 210235Z AUTO 23003KT 10SM CLR 12/02 A3030 RMK AO1 T01190021
Loading
Personal Weather Stations






























Interactive Weather Map
Tropical Storm Tracking
New forecast layout! Learn more

10-Day Weather Forecast

Advertisements
Track Severe Weather on mobile